Terminal Aerodrome Forecast
Issued by NWS Memphis, TN

Current Version | Previous Version | Text Only | Print | Product List | Glossary On
Versions: 1 2 3 4 5 6 7 8 9 10 11 12 13 14 15 16 17 18 19 20 21
869
FTUS44 KMEG 240528
TAFJBR
TAF
KJBR 240528Z 2406/2506 18011G17KT P6SM FEW150 SCT250 WS020/19060KT
     FM241200 20016G24KT P6SM SCT025 BKN200
     FM241500 21016G24KT P6SM BKN025
     FM241900 24010KT P6SM VCSH BKN035
     FM250000 29010G17KT P6SM SCT035 BKN120=

USA.gov is the U.S. government's official web portal to all federal, state and local government web resources and services.